Terminal Aerodrome Forecast
Issued by NWS

Home | Current Version | Previous Version | Graphics & Text | Print | Product List | Glossary On
Versions: 1 2 3 4 5 6 7 8 9 10 11 12 13 14 15 16 17 18 19 20 21 22 23 24
000
FTUS43 KGRB 222300
TAFRHI
TAF
KRHI 222320Z 2300/2324 30008KT 6SM -SN SCT025 OVC040
      TEMPO 2300/2304 3SM -SN BKN025
     FM230600 29006KT P6SM BKN025 OVC040
     FM231400 30010KT P6SM SCT025 BKN040
     FM231800 30010KT P6SM SCT050=

USA.gov is the U.S. government's official web portal to all federal, state and local government web resources and services.